sensor_id;sensor_type;location;lat;lon;timestamp;pressure;altitude;pressure_sealevel;temperature
41940;BMP180;23057;48.554;14.454;2024-03-06T00:00:08;93561.00;;;10.90
41940;BMP180;23057;48.554;14.454;2024-03-06T00:02:39;93562.00;;;10.90
41940;BMP180;23057;48.554;14.454;2024-03-06T00:05:10;93564.00;;;11.00
41940;BMP180;23057;48.554;14.454;2024-03-06T00:07:41;93555.00;;;10.90
41940;BMP180;23057;48.554;14.454;2024-03-06T00:10:12;93554.00;;;10.90
41940;BMP180;23057;48.554;14.454;2024-03-06T00:12:42;93568.00;;;10.90
41940;BMP180;23057;48.554;14.454;2024-03-06T00:15:13;93566.00;;;10.80
41940;BMP180;23057;48.554;14.454;2024-03-06T00:17:44;93560.00;;;10.70
41940;BMP180;23057;48.554;14.454;2024-03-06T00:20:15;93563.00;;;10.70
41940;BMP180;23057;48.554;14.454;2024-03-06T00:22:46;93566.00;;;10.60
41940;BMP180;23057;48.554;14.454;2024-03-06T00:25:17;93574.00;;;10.60
41940;BMP180;23057;48.554;14.454;2024-03-06T00:27:48;93574.00;;;10.70
41940;BMP180;23057;48.554;14.454;2024-03-06T00:30:19;93571.00;;;10.60
41940;BMP180;23057;48.554;14.454;2024-03-06T00:32:50;93572.00;;;10.60
41940;BMP180;23057;48.554;14.454;2024-03-06T00:35:21;93569.00;;;10.60
41940;BMP180;23057;48.554;14.454;2024-03-06T00:37:52;93573.00;;;10.60
41940;BMP180;23057;48.554;14.454;2024-03-06T00:40:23;93571.00;;;10.60
41940;BMP180;23057;48.554;14.454;2024-03-06T00:42:54;93568.00;;;10.70
41940;BMP180;23057;48.554;14.454;2024-03-06T00:45:25;93573.00;;;10.60
41940;BMP180;23057;48.554;14.454;2024-03-06T00:47:56;93572.00;;;10.70
41940;BMP180;23057;48.554;14.454;2024-03-06T00:50:27;93582.00;;;10.60
41940;BMP180;23057;48.554;14.454;2024-03-06T00:52:58;93569.00;;;10.60
41940;BMP180;23057;48.554;14.454;2024-03-06T00:55:29;93567.00;;;10.60
41940;BMP180;23057;48.554;14.454;2024-03-06T00:57:59;93570.00;;;10.60
41940;BMP180;23057;48.554;14.454;2024-03-06T01:00:30;93581.00;;;10.50
41940;BMP180;23057;48.554;14.454;2024-03-06T01:03:01;93571.00;;;10.50
41940;BMP180;23057;48.554;14.454;2024-03-06T01:05:32;93580.00;;;10.50
41940;BMP180;23057;48.554;14.454;2024-03-06T01:08:03;93578.00;;;10.40
41940;BMP180;23057;48.554;14.454;2024-03-06T01:10:34;93581.00;;;10.40
41940;BMP180;23057;48.554;14.454;2024-03-06T01:13:06;93578.00;;;10.30
41940;BMP180;23057;48.554;14.454;2024-03-06T01:15:38;93579.00;;;10.30
41940;BMP180;23057;48.554;14.454;2024-03-06T01:18:09;93586.00;;;10.30
41940;BMP180;23057;48.554;14.454;2024-03-06T01:20:40;93588.00;;;10.30
41940;BMP180;23057;48.554;14.454;2024-03-06T01:23:10;93592.00;;;10.30
41940;BMP180;23057;48.554;14.454;2024-03-06T01:25:41;93596.00;;;10.20
41940;BMP180;23057;48.554;14.454;2024-03-06T01:28:12;93587.00;;;10.10
41940;BMP180;23057;48.554;14.454;2024-03-06T01:30:43;93595.00;;;10.00
41940;BMP180;23057;48.554;14.454;2024-03-06T01:33:14;93596.00;;;9.90
41940;BMP180;23057;48.554;14.454;2024-03-06T01:35:45;93597.00;;;9.80
41940;BMP180;23057;48.554;14.454;2024-03-06T01:38:16;93597.00;;;9.80
41940;BMP180;23057;48.554;14.454;2024-03-06T01:40:47;93594.00;;;9.80
41940;BMP180;23057;48.554;14.454;2024-03-06T01:43:25;93588.00;;;9.80
41940;BMP180;23057;48.554;14.454;2024-03-06T01:45:56;93588.00;;;9.80
41940;BMP180;23057;48.554;14.454;2024-03-06T01:48:29;93584.00;;;9.70
41940;BMP180;23057;48.554;14.454;2024-03-06T01:51:02;93587.00;;;9.70
41940;BMP180;23057;48.554;14.454;2024-03-06T01:53:36;93592.00;;;9.60
41940;BMP180;23057;48.554;14.454;2024-03-06T01:56:08;93588.00;;;9.50
41940;BMP180;23057;48.554;14.454;2024-03-06T01:58:42;93581.00;;;9.50
41940;BMP180;23057;48.554;14.454;2024-03-06T02:01:14;93594.00;;;9.50
41940;BMP180;23057;48.554;14.454;2024-03-06T02:03:47;93593.00;;;9.50
41940;BMP180;23057;48.554;14.454;2024-03-06T02:06:18;93592.00;;;9.50
41940;BMP180;23057;48.554;14.454;2024-03-06T02:08:50;93589.00;;;9.50
41940;BMP180;23057;48.554;14.454;2024-03-06T02:11:22;93590.00;;;9.50
41940;BMP180;23057;48.554;14.454;2024-03-06T02:13:52;93586.00;;;9.50
41940;BMP180;23057;48.554;14.454;2024-03-06T02:16:23;93579.00;;;9.40
41940;BMP180;23057;48.554;14.454;2024-03-06T02:18:55;93576.00;;;9.40
41940;BMP180;23057;48.554;14.454;2024-03-06T02:21:30;93577.00;;;9.30
41940;BMP180;23057;48.554;14.454;2024-03-06T02:24:02;93566.00;;;9.30
41940;BMP180;23057;48.554;14.454;2024-03-06T02:26:33;93570.00;;;9.30
41940;BMP180;23057;48.554;14.454;2024-03-06T02:29:04;93567.00;;;9.30
41940;BMP180;23057;48.554;14.454;2024-03-06T02:31:36;93570.00;;;9.20
41940;BMP180;23057;48.554;14.454;2024-03-06T02:34:07;93568.00;;;9.20
41940;BMP180;23057;48.554;14.454;2024-03-06T02:36:38;93575.00;;;9.20
41940;BMP180;23057;48.554;14.454;2024-03-06T02:39:09;93572.00;;;9.10
41940;BMP180;23057;48.554;14.454;2024-03-06T02:41:39;93571.00;;;9.10
41940;BMP180;23057;48.554;14.454;2024-03-06T02:44:10;93579.00;;;9.10
41940;BMP180;23057;48.554;14.454;2024-03-06T02:46:41;93575.00;;;9.00
41940;BMP180;23057;48.554;14.454;2024-03-06T02:49:12;93573.00;;;8.90
41940;BMP180;23057;48.554;14.454;2024-03-06T02:51:43;93571.00;;;8.80
41940;BMP180;23057;48.554;14.454;2024-03-06T02:54:14;93575.00;;;8.70
41940;BMP180;23057;48.554;14.454;2024-03-06T02:56:45;93574.00;;;8.70
41940;BMP180;23057;48.554;14.454;2024-03-06T02:59:16;93571.00;;;8.70
41940;BMP180;23057;48.554;14.454;2024-03-06T03:01:47;93573.00;;;8.60
41940;BMP180;23057;48.554;14.454;2024-03-06T03:04:19;93571.00;;;8.60
41940;BMP180;23057;48.554;14.454;2024-03-06T03:06:49;93574.00;;;8.50
41940;BMP180;23057;48.554;14.454;2024-03-06T03:09:20;93569.00;;;8.50
41940;BMP180;23057;48.554;14.454;2024-03-06T03:11:51;93566.00;;;8.50
41940;BMP180;23057;48.554;14.454;2024-03-06T03:14:22;93565.00;;;8.40
41940;BMP180;23057;48.554;14.454;2024-03-06T03:16:53;93564.00;;;8.40
41940;BMP180;23057;48.554;14.454;2024-03-06T03:19:24;93568.00;;;8.20
41940;BMP180;23057;48.554;14.454;2024-03-06T03:21:55;93565.00;;;8.10
41940;BMP180;23057;48.554;14.454;2024-03-06T03:24:25;93567.00;;;8.10
41940;BMP180;23057;48.554;14.454;2024-03-06T03:26:57;93569.00;;;8.00
41940;BMP180;23057;48.554;14.454;2024-03-06T03:29:28;93568.00;;;7.90
41940;BMP180;23057;48.554;14.454;2024-03-06T03:32:00;93573.00;;;7.90
41940;BMP180;23057;48.554;14.454;2024-03-06T03:34:31;93580.00;;;7.80
41940;BMP180;23057;48.554;14.454;2024-03-06T03:37:03;93586.00;;;7.80
41940;BMP180;23057;48.554;14.454;2024-03-06T03:39:34;93587.00;;;7.70
41940;BMP180;23057;48.554;14.454;2024-03-06T03:42:05;93583.00;;;7.60
41940;BMP180;23057;48.554;14.454;2024-03-06T03:44:36;93586.00;;;7.60
41940;BMP180;23057;48.554;14.454;2024-03-06T03:47:08;93579.00;;;7.60
41940;BMP180;23057;48.554;14.454;2024-03-06T03:49:39;93579.00;;;7.50
41940;BMP180;23057;48.554;14.454;2024-03-06T03:52:10;93588.00;;;7.50
41940;BMP180;23057;48.554;14.454;2024-03-06T03:54:42;93584.00;;;7.50
41940;BMP180;23057;48.554;14.454;2024-03-06T03:57:12;93587.00;;;7.40
41940;BMP180;23057;48.554;14.454;2024-03-06T03:59:44;93587.00;;;7.30
41940;BMP180;23057;48.554;14.454;2024-03-06T04:02:15;93594.00;;;7.30
41940;BMP180;23057;48.554;14.454;2024-03-06T04:04:46;93586.00;;;7.20
41940;BMP180;23057;48.554;14.454;2024-03-06T04:07:17;93587.00;;;7.20
41940;BMP180;23057;48.554;14.454;2024-03-06T04:09:49;93589.00;;;7.10
41940;BMP180;23057;48.554;14.454;2024-03-06T04:12:20;93592.00;;;7.10
41940;BMP180;23057;48.554;14.454;2024-03-06T04:14:51;93583.00;;;7.10
41940;BMP180;23057;48.554;14.454;2024-03-06T04:17:22;93586.00;;;7.10
41940;BMP180;23057;48.554;14.454;2024-03-06T04:19:53;93592.00;;;7.20
41940;BMP180;23057;48.554;14.454;2024-03-06T04:22:26;93604.00;;;7.20
41940;BMP180;23057;48.554;14.454;2024-03-06T04:24:56;93601.00;;;7.20
41940;BMP180;23057;48.554;14.454;2024-03-06T04:27:29;93600.00;;;7.30
41940;BMP180;23057;48.554;14.454;2024-03-06T04:30:00;93606.00;;;7.30
41940;BMP180;23057;48.554;14.454;2024-03-06T04:32:31;93604.00;;;7.40
41940;BMP180;23057;48.554;14.454;2024-03-06T04:35:02;93602.00;;;7.50
41940;BMP180;23057;48.554;14.454;2024-03-06T04:37:33;93609.00;;;7.50
41940;BMP180;23057;48.554;14.454;2024-03-06T04:40:04;93611.00;;;7.60
41940;BMP180;23057;48.554;14.454;2024-03-06T04:42:38;93607.00;;;7.70
41940;BMP180;23057;48.554;14.454;2024-03-06T04:45:16;93612.00;;;7.70
41940;BMP180;23057;48.554;14.454;2024-03-06T04:47:47;93614.00;;;7.80
41940;BMP180;23057;48.554;14.454;2024-03-06T04:50:18;93613.00;;;7.80
41940;BMP180;23057;48.554;14.454;2024-03-06T04:52:49;93619.00;;;7.80
41940;BMP180;23057;48.554;14.454;2024-03-06T04:55:20;93622.00;;;7.90
41940;BMP180;23057;48.554;14.454;2024-03-06T04:57:53;93627.00;;;7.90
41940;BMP180;23057;48.554;14.454;2024-03-06T05:00:24;93623.00;;;8.00
41940;BMP180;23057;48.554;14.454;2024-03-06T05:02:55;93619.00;;;8.00
41940;BMP180;23057;48.554;14.454;2024-03-06T05:05:27;93619.00;;;8.00
41940;BMP180;23057;48.554;14.454;2024-03-06T05:07:58;93619.00;;;8.00
41940;BMP180;23057;48.554;14.454;2024-03-06T05:10:28;93626.00;;;8.10
41940;BMP180;23057;48.554;14.454;2024-03-06T05:12:59;93626.00;;;8.10
41940;BMP180;23057;48.554;14.454;2024-03-06T05:15:30;93631.00;;;8.20
41940;BMP180;23057;48.554;14.454;2024-03-06T05:18:01;93623.00;;;8.20
41940;BMP180;23057;48.554;14.454;2024-03-06T05:20:32;93628.00;;;8.30
41940;BMP180;23057;48.554;14.454;2024-03-06T05:23:03;93622.00;;;8.40
41940;BMP180;23057;48.554;14.454;2024-03-06T05:25:34;93620.00;;;8.40
41940;BMP180;23057;48.554;14.454;2024-03-06T05:28:05;93618.00;;;8.50
41940;BMP180;23057;48.554;14.454;2024-03-06T05:30:36;93627.00;;;8.50
41940;BMP180;23057;48.554;14.454;2024-03-06T05:33:07;93622.00;;;8.60
41940;BMP180;23057;48.554;14.454;2024-03-06T05:35:38;93623.00;;;8.60
41940;BMP180;23057;48.554;14.454;2024-03-06T05:38:09;93621.00;;;8.70
41940;BMP180;23057;48.554;14.454;2024-03-06T05:40:39;93630.00;;;8.70
41940;BMP180;23057;48.554;14.454;2024-03-06T05:43:12;93633.00;;;8.80
41940;BMP180;23057;48.554;14.454;2024-03-06T05:45:42;93637.00;;;8.90
41940;BMP180;23057;48.554;14.454;2024-03-06T05:48:13;93635.00;;;8.90
41940;BMP180;23057;48.554;14.454;2024-03-06T05:50:44;93643.00;;;9.00
41940;BMP180;23057;48.554;14.454;2024-03-06T05:53:15;93640.00;;;9.10
41940;BMP180;23057;48.554;14.454;2024-03-06T05:55:46;93640.00;;;9.10
41940;BMP180;23057;48.554;14.454;2024-03-06T05:58:17;93639.00;;;9.20
41940;BMP180;23057;48.554;14.454;2024-03-06T06:00:48;93644.00;;;9.30
41940;BMP180;23057;48.554;14.454;2024-03-06T06:03:19;93643.00;;;9.40
41940;BMP180;23057;48.554;14.454;2024-03-06T06:05:50;93645.00;;;9.40
41940;BMP180;23057;48.554;14.454;2024-03-06T06:08:20;93642.00;;;9.50
41940;BMP180;23057;48.554;14.454;2024-03-06T06:10:51;93640.00;;;9.50
41940;BMP180;23057;48.554;14.454;2024-03-06T06:13:22;93644.00;;;9.60
41940;BMP180;23057;48.554;14.454;2024-03-06T06:15:53;93657.00;;;9.70
41940;BMP180;23057;48.554;14.454;2024-03-06T06:18:24;93642.00;;;9.70
41940;BMP180;23057;48.554;14.454;2024-03-06T06:20:55;93643.00;;;9.80
41940;BMP180;23057;48.554;14.454;2024-03-06T06:23:26;93648.00;;;9.80
41940;BMP180;23057;48.554;14.454;2024-03-06T06:25:57;93654.00;;;9.90
41940;BMP180;23057;48.554;14.454;2024-03-06T06:28:27;93663.00;;;10.00
41940;BMP180;23057;48.554;14.454;2024-03-06T06:30:59;93663.00;;;10.00
41940;BMP180;23057;48.554;14.454;2024-03-06T06:33:30;93656.00;;;10.10
41940;BMP180;23057;48.554;14.454;2024-03-06T06:36:01;93654.00;;;10.10
41940;BMP180;23057;48.554;14.454;2024-03-06T06:38:32;93657.00;;;10.20
41940;BMP180;23057;48.554;14.454;2024-03-06T06:41:03;93651.00;;;10.20
41940;BMP180;23057;48.554;14.454;2024-03-06T06:43:34;93652.00;;;10.20
41940;BMP180;23057;48.554;14.454;2024-03-06T06:46:05;93663.00;;;10.30
41940;BMP180;23057;48.554;14.454;2024-03-06T06:48:36;93660.00;;;10.30
41940;BMP180;23057;48.554;14.454;2024-03-06T06:51:07;93660.00;;;10.40
41940;BMP180;23057;48.554;14.454;2024-03-06T06:53:39;93668.00;;;10.40
41940;BMP180;23057;48.554;14.454;2024-03-06T06:56:12;93667.00;;;10.50
41940;BMP180;23057;48.554;14.454;2024-03-06T06:58:43;93669.00;;;10.50
41940;BMP180;23057;48.554;14.454;2024-03-06T07:01:14;93675.00;;;10.60
41940;BMP180;23057;48.554;14.454;2024-03-06T07:03:47;93667.00;;;10.60
41940;BMP180;23057;48.554;14.454;2024-03-06T07:06:17;93674.00;;;10.60
41940;BMP180;23057;48.554;14.454;2024-03-06T07:08:48;93680.00;;;10.70
41940;BMP180;23057;48.554;14.454;2024-03-06T07:11:21;93678.00;;;10.70
41940;BMP180;23057;48.554;14.454;2024-03-06T07:13:52;93685.00;;;10.70
41940;BMP180;23057;48.554;14.454;2024-03-06T07:16:22;93695.00;;;10.80
41940;BMP180;23057;48.554;14.454;2024-03-06T07:18:53;93694.00;;;10.80
41940;BMP180;23057;48.554;14.454;2024-03-06T07:21:24;93691.00;;;10.80
41940;BMP180;23057;48.554;14.454;2024-03-06T07:23:55;93701.00;;;10.80
41940;BMP180;23057;48.554;14.454;2024-03-06T07:26:26;93700.00;;;10.90
41940;BMP180;23057;48.554;14.454;2024-03-06T07:28:59;93704.00;;;10.90
41940;BMP180;23057;48.554;14.454;2024-03-06T07:31:31;93708.00;;;11.00
41940;BMP180;23057;48.554;14.454;2024-03-06T07:34:02;93720.00;;;11.00
41940;BMP180;23057;48.554;14.454;2024-03-06T07:36:34;93717.00;;;11.10
41940;BMP180;23057;48.554;14.454;2024-03-06T07:39:05;93724.00;;;11.10
41940;BMP180;23057;48.554;14.454;2024-03-06T07:41:36;93725.00;;;11.10
41940;BMP180;23057;48.554;14.454;2024-03-06T07:44:08;93732.00;;;11.10
41940;BMP180;23057;48.554;14.454;2024-03-06T07:46:39;93731.00;;;11.10
41940;BMP180;23057;48.554;14.454;2024-03-06T07:49:10;93724.00;;;11.00
41940;BMP180;23057;48.554;14.454;2024-03-06T07:51:41;93731.00;;;11.00
41940;BMP180;23057;48.554;14.454;2024-03-06T07:54:12;93735.00;;;11.00
41940;BMP180;23057;48.554;14.454;2024-03-06T07:56:43;93735.00;;;10.90
41940;BMP180;23057;48.554;14.454;2024-03-06T07:59:14;93739.00;;;11.00
41940;BMP180;23057;48.554;14.454;2024-03-06T08:01:46;93745.00;;;11.00
41940;BMP180;23057;48.554;14.454;2024-03-06T08:04:16;93750.00;;;11.00
41940;BMP180;23057;48.554;14.454;2024-03-06T08:06:47;93752.00;;;11.00
41940;BMP180;23057;48.554;14.454;2024-03-06T08:09:18;93756.00;;;11.00
41940;BMP180;23057;48.554;14.454;2024-03-06T08:11:49;93758.00;;;11.10
41940;BMP180;23057;48.554;14.454;2024-03-06T08:14:20;93768.00;;;11.10
41940;BMP180;23057;48.554;14.454;2024-03-06T08:16:51;93759.00;;;11.10
41940;BMP180;23057;48.554;14.454;2024-03-06T08:19:23;93768.00;;;11.00
41940;BMP180;23057;48.554;14.454;2024-03-06T08:21:55;93763.00;;;11.00
41940;BMP180;23057;48.554;14.454;2024-03-06T08:24:26;93764.00;;;11.00
41940;BMP180;23057;48.554;14.454;2024-03-06T08:26:57;93769.00;;;11.00
41940;BMP180;23057;48.554;14.454;2024-03-06T08:29:46;93760.00;;;11.00
41940;BMP180;23057;48.554;14.454;2024-03-06T08:32:16;93776.00;;;10.90
41940;BMP180;23057;48.554;14.454;2024-03-06T08:34:47;93774.00;;;10.90
41940;BMP180;23057;48.554;14.454;2024-03-06T08:37:18;93785.00;;;10.90
41940;BMP180;23057;48.554;14.454;2024-03-06T08:39:49;93775.00;;;10.90
41940;BMP180;23057;48.554;14.454;2024-03-06T08:42:21;93783.00;;;10.90
41940;BMP180;23057;48.554;14.454;2024-03-06T08:44:52;93772.00;;;10.90
41940;BMP180;23057;48.554;14.454;2024-03-06T08:47:23;93772.00;;;10.80
41940;BMP180;23057;48.554;14.454;2024-03-06T08:49:54;93780.00;;;10.80
41940;BMP180;23057;48.554;14.454;2024-03-06T08:52:25;93762.00;;;10.80
41940;BMP180;23057;48.554;14.454;2024-03-06T08:54:57;93775.00;;;10.80
41940;BMP180;23057;48.554;14.454;2024-03-06T08:57:28;93783.00;;;10.80
41940;BMP180;23057;48.554;14.454;2024-03-06T09:00:04;93787.00;;;10.80
41940;BMP180;23057;48.554;14.454;2024-03-06T09:02:41;93779.00;;;10.80
41940;BMP180;23057;48.554;14.454;2024-03-06T09:05:12;93787.00;;;10.90
41940;BMP180;23057;48.554;14.454;2024-03-06T09:07:43;93788.00;;;10.90
41940;BMP180;23057;48.554;14.454;2024-03-06T09:10:14;93797.00;;;10.90
41940;BMP180;23057;48.554;14.454;2024-03-06T09:12:45;93792.00;;;10.90
41940;BMP180;23057;48.554;14.454;2024-03-06T09:15:17;93791.00;;;11.00
41940;BMP180;23057;48.554;14.454;2024-03-06T09:17:49;93799.00;;;11.10
41940;BMP180;23057;48.554;14.454;2024-03-06T09:20:20;93805.00;;;11.10
41940;BMP180;23057;48.554;14.454;2024-03-06T09:22:51;93802.00;;;11.10
41940;BMP180;23057;48.554;14.454;2024-03-06T09:25:24;93797.00;;;11.20
41940;BMP180;23057;48.554;14.454;2024-03-06T09:27:55;93803.00;;;11.30
41940;BMP180;23057;48.554;14.454;2024-03-06T09:30:26;93797.00;;;11.50
41940;BMP180;23057;48.554;14.454;2024-03-06T09:32:58;93797.00;;;11.60
41940;BMP180;23057;48.554;14.454;2024-03-06T09:35:29;93798.00;;;11.70
41940;BMP180;23057;48.554;14.454;2024-03-06T09:38:00;93805.00;;;11.70
41940;BMP180;23057;48.554;14.454;2024-03-06T09:40:31;93797.00;;;11.80
41940;BMP180;23057;48.554;14.454;2024-03-06T09:43:03;93804.00;;;11.90
41940;BMP180;23057;48.554;14.454;2024-03-06T09:45:34;93808.00;;;12.00
41940;BMP180;23057;48.554;14.454;2024-03-06T09:48:08;93797.00;;;12.00
41940;BMP180;23057;48.554;14.454;2024-03-06T09:50:43;93803.00;;;12.10
41940;BMP180;23057;48.554;14.454;2024-03-06T09:53:18;93795.00;;;12.20
41940;BMP180;23057;48.554;14.454;2024-03-06T09:55:55;93809.00;;;12.20
41940;BMP180;23057;48.554;14.454;2024-03-06T09:58:28;93806.00;;;12.20
41940;BMP180;23057;48.554;14.454;2024-03-06T10:01:01;93804.00;;;12.20
41940;BMP180;23057;48.554;14.454;2024-03-06T10:03:34;93803.00;;;12.30
41940;BMP180;23057;48.554;14.454;2024-03-06T10:06:05;93795.00;;;12.30
41940;BMP180;23057;48.554;14.454;2024-03-06T10:08:41;93799.00;;;12.30
41940;BMP180;23057;48.554;14.454;2024-03-06T10:11:13;93799.00;;;12.30
41940;BMP180;23057;48.554;14.454;2024-03-06T10:13:44;93796.00;;;12.30
41940;BMP180;23057;48.554;14.454;2024-03-06T10:16:15;93808.00;;;12.30
41940;BMP180;23057;48.554;14.454;2024-03-06T10:18:46;93793.00;;;12.30
41940;BMP180;23057;48.554;14.454;2024-03-06T10:21:32;93804.00;;;12.30
41940;BMP180;23057;48.554;14.454;2024-03-06T10:24:03;93799.00;;;12.30
41940;BMP180;23057;48.554;14.454;2024-03-06T10:26:34;93785.00;;;12.40
41940;BMP180;23057;48.554;14.454;2024-03-06T10:29:05;93798.00;;;12.40
41940;BMP180;23057;48.554;14.454;2024-03-06T10:31:36;93795.00;;;12.40
41940;BMP180;23057;48.554;14.454;2024-03-06T10:34:07;93806.00;;;12.50
41940;BMP180;23057;48.554;14.454;2024-03-06T10:36:38;93796.00;;;12.50
41940;BMP180;23057;48.554;14.454;2024-03-06T10:39:12;93797.00;;;12.50
41940;BMP180;23057;48.554;14.454;2024-03-06T10:41:51;93808.00;;;12.50
41940;BMP180;23057;48.554;14.454;2024-03-06T10:44:26;93805.00;;;12.50
41940;BMP180;23057;48.554;14.454;2024-03-06T10:47:07;93808.00;;;12.50
41940;BMP180;23057;48.554;14.454;2024-03-06T10:49:41;93800.00;;;12.50
41940;BMP180;23057;48.554;14.454;2024-03-06T10:52:14;93807.00;;;12.60
41940;BMP180;23057;48.554;14.454;2024-03-06T10:54:49;93812.00;;;12.70
41940;BMP180;23057;48.554;14.454;2024-03-06T10:57:20;93801.00;;;12.70
41940;BMP180;23057;48.554;14.454;2024-03-06T10:59:52;93802.00;;;12.70
41940;BMP180;23057;48.554;14.454;2024-03-06T11:02:24;93799.00;;;12.70
41940;BMP180;23057;48.554;14.454;2024-03-06T11:04:55;93801.00;;;12.80
41940;BMP180;23057;48.554;14.454;2024-03-06T11:07:26;93792.00;;;12.80
41940;BMP180;23057;48.554;14.454;2024-03-06T11:09:58;93801.00;;;12.80
41940;BMP180;23057;48.554;14.454;2024-03-06T11:12:38;93796.00;;;12.90
41940;BMP180;23057;48.554;14.454;2024-03-06T11:15:14;93802.00;;;12.90
41940;BMP180;23057;48.554;14.454;2024-03-06T11:17:47;93808.00;;;12.90
41940;BMP180;23057;48.554;14.454;2024-03-06T11:20:19;93799.00;;;12.90
41940;BMP180;23057;48.554;14.454;2024-03-06T11:28:22;93789.00;;;13.00
41940;BMP180;23057;48.554;14.454;2024-03-06T11:31:02;93796.00;;;13.00
41940;BMP180;23057;48.554;14.454;2024-03-06T11:33:41;93792.00;;;13.00
41940;BMP180;23057;48.554;14.454;2024-03-06T11:36:20;93790.00;;;13.00
41940;BMP180;23057;48.554;14.454;2024-03-06T11:39:02;93778.00;;;13.00
41940;BMP180;23057;48.554;14.454;2024-03-06T11:44:19;93788.00;;;13.00
41940;BMP180;23057;48.554;14.454;2024-03-06T11:49:39;93794.00;;;12.90
41940;BMP180;23057;48.554;14.454;2024-03-06T11:52:11;93797.00;;;12.90
41940;BMP180;23057;48.554;14.454;2024-03-06T11:54:41;93792.00;;;12.90
41940;BMP180;23057;48.554;14.454;2024-03-06T11:57:13;93791.00;;;12.90
41940;BMP180;23057;48.554;14.454;2024-03-06T11:59:46;93794.00;;;12.90
41940;BMP180;23057;48.554;14.454;2024-03-06T12:02:17;93803.00;;;12.80
41940;BMP180;23057;48.554;14.454;2024-03-06T12:04:48;93797.00;;;12.80
41940;BMP180;23057;48.554;14.454;2024-03-06T12:07:19;93802.00;;;12.80
41940;BMP180;23057;48.554;14.454;2024-03-06T12:09:52;93802.00;;;12.80
41940;BMP180;23057;48.554;14.454;2024-03-06T12:12:24;93812.00;;;12.90
41940;BMP180;23057;48.554;14.454;2024-03-06T12:14:58;93804.00;;;12.90
41940;BMP180;23057;48.554;14.454;2024-03-06T12:17:30;93805.00;;;12.80
41940;BMP180;23057;48.554;14.454;2024-03-06T12:20:01;93803.00;;;12.80
41940;BMP180;23057;48.554;14.454;2024-03-06T12:22:33;93796.00;;;12.80
41940;BMP180;23057;48.554;14.454;2024-03-06T12:25:05;93803.00;;;12.80
41940;BMP180;23057;48.554;14.454;2024-03-06T12:27:36;93805.00;;;12.80
41940;BMP180;23057;48.554;14.454;2024-03-06T12:30:11;93798.00;;;12.80
41940;BMP180;23057;48.554;14.454;2024-03-06T12:32:59;93802.00;;;12.80
41940;BMP180;23057;48.554;14.454;2024-03-06T12:35:35;93808.00;;;12.80
41940;BMP180;23057;48.554;14.454;2024-03-06T12:38:17;93801.00;;;12.80
41940;BMP180;23057;48.554;14.454;2024-03-06T12:40:48;93801.00;;;12.80
41940;BMP180;23057;48.554;14.454;2024-03-06T12:43:19;93813.00;;;12.80
41940;BMP180;23057;48.554;14.454;2024-03-06T12:45:50;93801.00;;;12.80
41940;BMP180;23057;48.554;14.454;2024-03-06T12:48:22;93804.00;;;12.70
41940;BMP180;23057;48.554;14.454;2024-03-06T12:50:53;93810.00;;;12.80
41940;BMP180;23057;48.554;14.454;2024-03-06T12:53:24;93800.00;;;12.80
41940;BMP180;23057;48.554;14.454;2024-03-06T12:55:55;93803.00;;;12.80
41940;BMP180;23057;48.554;14.454;2024-03-06T12:58:26;93800.00;;;12.80
41940;BMP180;23057;48.554;14.454;2024-03-06T13:00:58;93805.00;;;12.80
41940;BMP180;23057;48.554;14.454;2024-03-06T13:03:29;93815.00;;;12.80
41940;BMP180;23057;48.554;14.454;2024-03-06T13:06:00;93802.00;;;12.70
41940;BMP180;23057;48.554;14.454;2024-03-06T13:08:32;93808.00;;;12.70
41940;BMP180;23057;48.554;14.454;2024-03-06T13:11:03;93808.00;;;12.70
41940;BMP180;23057;48.554;14.454;2024-03-06T13:13:34;93806.00;;;12.70
41940;BMP180;23057;48.554;14.454;2024-03-06T13:16:05;93800.00;;;12.70
41940;BMP180;23057;48.554;14.454;2024-03-06T13:18:37;93799.00;;;12.70
41940;BMP180;23057;48.554;14.454;2024-03-06T13:21:08;93806.00;;;12.70
41940;BMP180;23057;48.554;14.454;2024-03-06T13:23:38;93801.00;;;12.70
41940;BMP180;23057;48.554;14.454;2024-03-06T13:26:09;93800.00;;;12.70
41940;BMP180;23057;48.554;14.454;2024-03-06T13:28:40;93802.00;;;12.70
41940;BMP180;23057;48.554;14.454;2024-03-06T13:31:11;93798.00;;;12.80
41940;BMP180;23057;48.554;14.454;2024-03-06T13:33:43;93805.00;;;12.80
41940;BMP180;23057;48.554;14.454;2024-03-06T13:36:14;93798.00;;;12.80
41940;BMP180;23057;48.554;14.454;2024-03-06T13:38:45;93791.00;;;12.80
41940;BMP180;23057;48.554;14.454;2024-03-06T13:41:16;93794.00;;;12.90
41940;BMP180;23057;48.554;14.454;2024-03-06T13:43:47;93798.00;;;12.80
41940;BMP180;23057;48.554;14.454;2024-03-06T13:46:18;93787.00;;;12.80
41940;BMP180;23057;48.554;14.454;2024-03-06T13:48:49;93786.00;;;12.90
41940;BMP180;23057;48.554;14.454;2024-03-06T13:51:20;93789.00;;;12.90
41940;BMP180;23057;48.554;14.454;2024-03-06T13:53:51;93780.00;;;12.90
41940;BMP180;23057;48.554;14.454;2024-03-06T13:56:22;93796.00;;;12.80
41940;BMP180;23057;48.554;14.454;2024-03-06T13:58:53;93795.00;;;12.80
41940;BMP180;23057;48.554;14.454;2024-03-06T14:01:24;93784.00;;;12.80
41940;BMP180;23057;48.554;14.454;2024-03-06T14:03:55;93794.00;;;12.80
41940;BMP180;23057;48.554;14.454;2024-03-06T14:06:26;93789.00;;;12.80
41940;BMP180;23057;48.554;14.454;2024-03-06T14:08:57;93789.00;;;12.90
41940;BMP180;23057;48.554;14.454;2024-03-06T14:11:28;93789.00;;;12.90
41940;BMP180;23057;48.554;14.454;2024-03-06T14:13:59;93794.00;;;12.90
41940;BMP180;23057;48.554;14.454;2024-03-06T14:16:29;93788.00;;;13.00
41940;BMP180;23057;48.554;14.454;2024-03-06T14:19:01;93783.00;;;13.00
41940;BMP180;23057;48.554;14.454;2024-03-06T14:21:32;93781.00;;;13.00
41940;BMP180;23057;48.554;14.454;2024-03-06T14:24:04;93780.00;;;12.90
41940;BMP180;23057;48.554;14.454;2024-03-06T14:26:39;93788.00;;;13.00
41940;BMP180;23057;48.554;14.454;2024-03-06T14:29:10;93793.00;;;13.00
41940;BMP180;23057;48.554;14.454;2024-03-06T14:31:41;93786.00;;;13.00
41940;BMP180;23057;48.554;14.454;2024-03-06T14:34:12;93785.00;;;13.10
41940;BMP180;23057;48.554;14.454;2024-03-06T14:36:43;93785.00;;;13.20